Time;durP1;ratioP1;P1;durP2;ratioP2;P2;SDS_P1;SDS_P2;PMS_P1;PMS_P2;Temp;Humidity;BMP_temperature;BMP_pressure;BME280_temperature;BME280_humidity;BME280_pressure;Samples;Min_cycle;Max_cycle;Signal;HPM_P1;HPM_P2
2024/01/10 00:00:20;;;;;;;1.17;1.17;;;2.10;72.20;;;;;;4949568;28;20440;-87
2024/01/10 00:02:50;;;;;;;1.40;1.30;;;2.10;72.10;;;;;;4951568;28;20292;-86
2024/01/10 00:05:19;;;;;;;1.50;1.40;;;2.10;73.40;;;;;;4949862;28;20292;-86
2024/01/10 00:07:48;;;;;;;1.03;0.93;;;2.00;74.10;;;;;;4950081;28;20200;-85
2024/01/10 00:10:17;;;;;;;3.50;2.03;;;2.00;73.80;;;;;;4949182;28;20203;-85
2024/01/10 00:12:46;;;;;;;4.07;2.47;;;2.00;74.60;;;;;;4948987;28;20206;-85
2024/01/10 00:15:15;;;;;;;9.60;4.17;;;2.00;74.00;;;;;;4950842;28;20284;-85
2024/01/10 00:17:43;;;;;;;3.17;2.90;;;2.00;73.80;;;;;;4951155;28;20716;-84
2024/01/10 00:20:16;;;;;;;1.87;1.77;;;2.00;73.80;;;;;;4952991;28;20286;-85
2024/01/10 00:22:45;;;;;;;1.00;1.00;;;2.00;74.00;;;;;;4951047;28;20196;-85
2024/01/10 00:25:13;;;;;;;1.80;1.63;;;2.00;74.60;;;;;;4946671;28;20346;-86
2024/01/10 00:27:42;;;;;;;2.23;1.73;;;2.00;74.90;;;;;;4953108;28;20290;-85
2024/01/10 00:30:10;;;;;;;2.77;2.50;;;1.90;75.50;;;;;;4946544;28;20230;-84
2024/01/10 00:32:39;;;;;;;2.23;2.03;;;1.90;75.40;;;;;;4954840;28;20821;-85
2024/01/10 00:35:08;;;;;;;1.17;1.17;;;1.90;75.20;;;;;;4948584;28;20229;-87
2024/01/10 00:37:42;;;;;;;0.90;0.90;;;1.90;75.70;;;;;;4956076;28;20277;-85
2024/01/10 00:40:11;;;;;;;5.83;2.93;;;1.90;75.40;;;;;;4951960;28;20554;-84
2024/01/10 00:42:40;;;;;;;2.23;2.07;;;1.90;75.90;;;;;;4955633;28;20217;-87
2024/01/10 00:45:09;;;;;;;1.23;1.17;;;1.90;75.60;;;;;;4951490;28;20223;-87
2024/01/10 00:47:37;;;;;;;1.40;1.30;;;1.90;75.70;;;;;;4951050;28;20230;-87
2024/01/10 00:50:07;;;;;;;1.67;1.57;;;1.90;75.50;;;;;;4956231;28;20195;-87
2024/01/10 00:52:37;;;;;;;2.37;1.80;;;1.90;75.80;;;;;;4951015;28;20214;-85
2024/01/10 00:55:06;;;;;;;0.90;0.90;;;1.90;75.60;;;;;;4953664;28;20344;-85
2024/01/10 00:57:35;;;;;;;1.30;1.20;;;1.80;75.50;;;;;;4952284;28;20224;-86
2024/01/10 01:00:03;;;;;;;1.60;1.50;;;1.80;76.20;;;;;;4959169;28;20230;-87
2024/01/10 01:02:33;;;;;;;3.23;1.73;;;1.80;76.00;;;;;;4956578;28;20205;-84
2024/01/10 01:05:03;;;;;;;1.10;1.10;;;1.80;76.30;;;;;;4947027;28;20207;-86
2024/01/10 01:07:32;;;;;;;5.17;2.07;;;1.70;76.40;;;;;;4948876;28;20224;-86
2024/01/10 01:10:01;;;;;;;1.43;1.33;;;1.70;76.40;;;;;;4952347;28;20262;-86
2024/01/10 01:12:31;;;;;;;1.73;1.63;;;1.70;76.30;;;;;;4953061;28;20219;-86
2024/01/10 01:15:00;;;;;;;5.20;3.43;;;1.60;76.60;;;;;;4946868;28;20207;-86
2024/01/10 01:17:28;;;;;;;9.63;2.03;;;1.60;77.00;;;;;;4953714;28;20639;-86
2024/01/10 01:19:57;;;;;;;1.73;1.63;;;1.50;77.50;;;;;;4954001;28;20234;-86
2024/01/10 01:22:25;;;;;;;2.17;1.90;;;1.50;77.30;;;;;;4960651;28;20193;-86
2024/01/10 01:24:54;;;;;;;3.30;1.97;;;1.40;78.30;;;;;;4951899;28;20207;-84
2024/01/10 01:27:23;;;;;;;2.17;1.97;;;1.40;78.80;;;;;;4955036;28;20195;-86
2024/01/10 01:29:53;;;;;;;1.47;1.37;;;1.30;78.80;;;;;;4949585;28;20660;-83
2024/01/10 01:32:21;;;;;;;2.07;1.93;;;1.30;79.20;;;;;;4950675;28;20207;-86
2024/01/10 01:34:50;;;;;;;1.67;1.23;;;1.30;79.20;;;;;;4952113;28;20248;-85
2024/01/10 01:37:19;;;;;;;0.97;0.97;;;1.20;79.60;;;;;;4962548;28;20215;-86
2024/01/10 01:39:47;;;;;;;1.80;1.70;;;1.10;80.10;;;;;;4951155;28;20208;-84
2024/01/10 01:42:17;;;;;;;2.63;2.50;;;1.10;80.20;;;;;;4952203;28;20206;-83
2024/01/10 01:44:45;;;;;;;4.80;3.10;;;1.00;80.50;;;;;;4947910;28;20209;-85
2024/01/10 01:47:15;;;;;;;0.83;0.83;;;1.00;80.30;;;;;;4950787;28;20204;-85
2024/01/10 01:49:44;;;;;;;1.30;1.27;;;1.00;80.40;;;;;;4950853;28;20274;-85
2024/01/10 01:52:13;;;;;;;3.50;1.73;;;1.00;80.30;;;;;;4957136;28;20217;-84
2024/01/10 01:54:42;;;;;;;1.60;1.50;;;1.00;80.50;;;;;;4954328;28;20195;-85
2024/01/10 01:57:11;;;;;;;2.43;1.57;;;1.00;80.70;;;;;;4952733;29;20233;-84
2024/01/10 01:59:39;;;;;;;1.10;1.10;;;0.90;80.90;;;;;;4951153;28;20244;-85
2024/01/10 02:02:09;;;;;;;2.23;2.03;;;0.90;81.20;;;;;;4958539;28;20294;-84
2024/01/10 02:04:39;;;;;;;1.10;1.10;;;0.90;81.10;;;;;;4952042;28;20206;-86
2024/01/10 02:07:07;;;;;;;1.97;1.83;;;0.90;80.90;;;;;;4949130;28;20709;-84
2024/01/10 02:09:36;;;;;;;1.87;1.77;;;0.90;80.90;;;;;;4952948;28;20207;-83
2024/01/10 02:12:06;;;;;;;2.50;2.07;;;0.90;81.10;;;;;;4953649;28;20683;-85
2024/01/10 02:14:34;;;;;;;2.23;2.03;;;0.90;81.20;;;;;;4955662;28;20202;-86
2024/01/10 02:17:03;;;;;;;2.47;1.93;;;0.90;81.30;;;;;;4951731;28;20711;-84
2024/01/10 02:19:32;;;;;;;0.93;0.93;;;0.90;81.10;;;;;;4948872;28;20614;-85
2024/01/10 02:22:04;;;;;;;7.40;3.37;;;0.90;81.30;;;;;;4948303;28;20710;-85
2024/01/10 02:24:32;;;;;;;0.67;0.67;;;0.90;81.30;;;;;;4951538;28;20187;-85
2024/01/10 02:27:02;;;;;;;5.10;3.13;;;0.80;81.80;;;;;;4951768;28;20207;-85
2024/01/10 02:29:32;;;;;;;2.67;2.20;;;0.70;82.00;;;;;;4962569;28;20293;-89
2024/01/10 02:32:01;;;;;;;1.73;1.63;;;0.80;81.60;;;;;;4957841;29;20186;-90
2024/01/10 02:34:32;;;;;;;3.30;1.13;;;0.80;81.60;;;;;;4965298;28;20199;-92
2024/01/10 02:37:01;;;;;;;1.70;1.60;;;0.80;81.80;;;;;;4961024;28;20428;-91
2024/01/10 02:43:06;;;;;;;4.40;2.23;;;0.70;82.20;;;;;;4955364;28;20198;-88
2024/01/10 02:46:31;;;;;;;0.70;0.70;;;0.70;82.00;;;;;;4961191;28;20209;-88
2024/01/10 02:49:22;;;;;;;2.50;2.30;;;0.60;83.40;;;;;;4959071;28;20202;-83
2024/01/10 02:51:51;;;;;;;0.70;0.70;;;0.60;82.50;;;;;;4955871;28;20206;-83
2024/01/10 02:54:20;;;;;;;4.47;2.97;;;0.60;82.70;;;;;;4955649;28;20290;-84
2024/01/10 02:56:49;;;;;;;1.90;1.80;;;0.60;82.70;;;;;;4955523;28;20428;-84
2024/01/10 02:59:20;;;;;;;1.20;1.13;;;0.50;82.80;;;;;;4957339;28;20239;-84
2024/01/10 03:01:49;;;;;;;1.93;1.80;;;0.50;82.70;;;;;;4949831;28;20676;-85
2024/01/10 03:04:28;;;;;;;1.57;1.47;;;0.50;83.10;;;;;;4967267;28;20202;-91
2024/01/10 03:06:57;;;;;;;1.63;1.53;;;0.40;83.40;;;;;;4965747;28;20218;-92
2024/01/10 03:09:28;;;;;;;2.27;1.57;;;0.40;84.40;;;;;;4960408;28;20203;-91
2024/01/10 03:12:00;;;;;;;2.20;2.00;;;0.40;83.30;;;;;;4963634;28;20222;-91
2024/01/10 03:14:31;;;;;;;1.07;1.07;;;0.30;83.70;;;;;;4961413;28;20253;-91
2024/01/10 03:17:00;;;;;;;1.20;1.17;;;0.30;83.60;;;;;;4955491;29;20213;-91
2024/01/10 03:19:28;;;;;;;2.03;1.47;;;0.30;83.60;;;;;;4958848;28;20750;-89
2024/01/10 03:21:57;;;;;;;6.80;2.50;;;0.30;83.70;;;;;;4958759;29;20215;-88
2024/01/10 03:24:27;;;;;;;2.07;1.87;;;0.20;84.00;;;;;;4957164;28;20293;-89
2024/01/10 03:26:56;;;;;;;3.00;2.80;;;0.30;83.80;;;;;;4960103;28;20621;-92
2024/01/10 03:29:25;;;;;;;1.30;1.27;;;0.20;84.20;;;;;;4961884;28;20218;-93
2024/01/10 03:31:55;;;;;;;2.70;2.50;;;0.10;84.20;;;;;;4958458;28;20202;-91
2024/01/10 03:34:24;;;;;;;3.20;2.23;;;0.10;84.40;;;;;;4956170;28;20267;-88
2024/01/10 03:36:53;;;;;;;1.07;1.07;;;0.10;84.50;;;;;;4960108;28;20238;-88
2024/01/10 03:39:22;;;;;;;2.13;2.03;;;0.10;85.50;;;;;;4959334;28;20236;-88
2024/01/10 03:41:51;;;;;;;1.40;1.33;;;0.10;84.40;;;;;;4950145;28;20202;-88
2024/01/10 03:44:22;;;;;;;3.90;3.30;;;0.10;84.20;;;;;;4961351;28;20202;-93
2024/01/10 03:46:54;;;;;;;2.80;2.17;;;0.20;84.10;;;;;;4968959;28;20201;-92
2024/01/10 03:49:23;;;;;;;2.70;2.50;;;0.20;84.30;;;;;;4957183;28;20723;-85
2024/01/10 03:51:52;;;;;;;1.17;1.17;;;0.20;84.10;;;;;;4946406;28;20226;-85
2024/01/10 03:54:20;;;;;;;3.97;2.27;;;0.20;84.30;;;;;;4960817;28;20549;-84
2024/01/10 03:56:49;;;;;;;2.47;2.30;;;0.20;84.30;;;;;;4951098;28;20218;-84
2024/01/10 03:59:18;;;;;;;1.07;1.07;;;0.10;84.50;;;;;;4953151;28;20233;-84
2024/01/10 04:01:46;;;;;;;1.30;1.20;;;0.10;84.50;;;;;;4952762;28;20202;-85
2024/01/10 04:04:16;;;;;;;1.37;1.27;;;0.10;84.50;;;;;;4952884;28;20213;-83
2024/01/10 04:06:46;;;;;;;2.10;1.67;;;0.00;84.70;;;;;;4953721;28;20220;-83
2024/01/10 04:09:15;;;;;;;1.73;1.47;;;0.10;84.60;;;;;;4945567;28;20198;-83
2024/01/10 04:11:43;;;;;;;3.60;2.60;;;0.00;84.60;;;;;;4949883;28;20659;-82
2024/01/10 04:14:12;;;;;;;3.30;3.03;;;0.00;84.60;;;;;;4952313;28;20206;-83
2024/01/10 04:16:40;;;;;;;2.80;1.80;;;0.10;84.70;;;;;;4945954;28;20210;-84
2024/01/10 04:19:09;;;;;;;1.03;1.03;;;0.10;84.50;;;;;;4952013;28;20591;-83
2024/01/10 04:21:39;;;;;;;2.63;2.43;;;0.00;84.70;;;;;;4955649;28;20248;-84
2024/01/10 04:24:08;;;;;;;4.63;2.53;;;0.00;85.00;;;;;;4949993;28;20210;-84
2024/01/10 04:26:36;;;;;;;5.23;2.17;;;0.00;84.60;;;;;;4951610;28;20567;-84
2024/01/10 04:29:05;;;;;;;3.30;3.03;;;0.10;84.50;;;;;;4949524;28;20309;-84
2024/01/10 04:31:35;;;;;;;2.20;2.10;;;0.00;85.10;;;;;;4949287;28;20778;-84
2024/01/10 04:34:04;;;;;;;2.43;2.23;;;0.00;85.20;;;;;;4954178;28;20202;-84
2024/01/10 04:36:33;;;;;;;1.43;1.37;;;0.00;85.10;;;;;;4948519;28;20660;-84
2024/01/10 04:39:04;;;;;;;4.87;2.60;;;0.00;84.90;;;;;;4957718;28;20324;-83
2024/01/10 04:41:32;;;;;;;5.30;2.30;;;0.00;85.20;;;;;;4960493;28;20721;-83
2024/01/10 04:44:01;;;;;;;2.23;2.13;;;0.00;85.10;;;;;;4949084;28;20202;-83
2024/01/10 04:46:29;;;;;;;2.07;1.63;;;0.00;85.10;;;;;;4946483;28;20203;-83
2024/01/10 04:48:58;;;;;;;1.40;1.33;;;0.00;85.20;;;;;;4960324;28;20218;-83
2024/01/10 04:51:26;;;;;;;3.73;2.67;;;-0.10;85.20;;;;;;4947849;28;20211;-84
2024/01/10 04:53:55;;;;;;;1.47;1.40;;;0.00;85.10;;;;;;4942763;28;20633;-83
2024/01/10 04:56:26;;;;;;;1.27;1.23;;;0.00;85.10;;;;;;4943255;28;20213;-83
2024/01/10 04:58:54;;;;;;;1.90;1.67;;;0.00;84.80;;;;;;4947508;28;20237;-83
2024/01/10 05:01:27;;;;;;;2.00;1.87;;;0.00;84.90;;;;;;4947335;28;20202;-83
2024/01/10 05:03:56;;;;;;;3.00;2.73;;;0.00;84.90;;;;;;4942481;28;20198;-83
2024/01/10 05:06:25;;;;;;;2.73;2.03;;;0.00;84.90;;;;;;4947283;28;20717;-81
2024/01/10 05:08:57;;;;;;;7.40;1.77;;;-0.10;85.10;;;;;;4944232;28;20198;-82
2024/01/10 05:11:30;;;;;;;2.17;1.97;;;-0.10;85.10;;;;;;4953703;28;20188;-83
2024/01/10 05:14:26;;;;;;;6.37;3.83;;;-0.10;85.10;;;;;;4954228;28;20236;-82
2024/01/10 05:16:55;;;;;;;1.57;1.47;;;-0.10;85.20;;;;;;4950629;29;20199;-82
2024/01/10 05:19:24;;;;;;;2.83;2.63;;;-0.10;85.20;;;;;;4955984;28;20229;-83
2024/01/10 05:21:54;;;;;;;2.70;2.43;;;-0.10;85.20;;;;;;4954392;28;20206;-82
2024/01/10 05:24:22;;;;;;;3.20;2.80;;;-0.10;85.20;;;;;;4950939;28;20203;-82
2024/01/10 05:26:55;;;;;;;4.77;2.60;;;-0.10;85.20;;;;;;4953287;28;20292;-83
2024/01/10 05:29:24;;;;;;;4.30;3.90;;;-0.10;85.00;;;;;;4946174;28;20674;-79
2024/01/10 05:31:58;;;;;;;1.93;1.83;;;-0.10;85.00;;;;;;4946227;28;20261;-79
2024/01/10 05:34:29;;;;;;;2.27;2.07;;;-0.10;85.10;;;;;;4954985;28;20264;-82
2024/01/10 05:36:58;;;;;;;6.40;3.07;;;-0.10;85.00;;;;;;4951764;28;20201;-83
2024/01/10 05:39:26;;;;;;;3.80;2.20;;;-0.10;85.10;;;;;;4954014;28;20234;-85
2024/01/10 05:41:56;;;;;;;2.00;1.90;;;-0.20;85.20;;;;;;4952314;28;20203;-86
2024/01/10 05:44:25;;;;;;;2.33;2.13;;;-0.20;85.30;;;;;;4959883;28;20207;-84
2024/01/10 05:46:59;;;;;;;7.93;3.53;;;-0.30;85.40;;;;;;4949481;28;20200;-84
2024/01/10 05:49:32;;;;;;;2.50;1.87;;;-0.30;85.40;;;;;;4952417;28;20745;-82
2024/01/10 05:52:01;;;;;;;3.97;3.00;;;-0.30;85.50;;;;;;4951103;28;20209;-81
2024/01/10 05:54:29;;;;;;;3.43;3.23;;;-0.30;85.60;;;;;;4961233;28;20217;-87
2024/01/10 05:57:00;;;;;;;2.57;2.40;;;-0.30;85.70;;;;;;4958482;28;20199;-81
2024/01/10 05:59:30;;;;;;;8.33;2.10;;;-0.20;85.60;;;;;;4948890;28;20253;-80
2024/01/10 06:02:04;;;;;;;4.53;3.10;;;-0.20;85.50;;;;;;4949721;28;20213;-85
2024/01/10 06:04:33;;;;;;;5.83;3.13;;;-0.30;85.60;;;;;;4958210;28;20203;-87
2024/01/10 06:07:03;;;;;;;6.93;2.10;;;-0.30;85.50;;;;;;4953503;28;20210;-87
2024/01/10 06:09:32;;;;;;;1.40;1.40;;;-0.20;85.40;;;;;;4959307;28;20202;-86
2024/01/10 06:12:03;;;;;;;0.90;0.90;;;-0.20;85.40;;;;;;4959629;28;20202;-87
2024/01/10 06:14:32;;;;;;;2.37;2.20;;;-0.20;85.40;;;;;;4958506;28;20221;-83
2024/01/10 06:17:01;;;;;;;3.92;3.38;;;-0.20;85.40;;;;;;4949168;28;20544;-83
2024/01/10 06:19:30;;;;;;;3.47;3.17;;;-0.20;85.70;;;;;;4960223;28;20265;-83
2024/01/10 06:21:59;;;;;;;4.53;2.93;;;-0.10;85.70;;;;;;4960431;28;20289;-87
2024/01/10 06:24:28;;;;;;;4.13;3.80;;;-0.20;85.60;;;;;;4957792;28;20587;-85
2024/01/10 06:26:56;;;;;;;3.07;2.87;;;-0.20;85.50;;;;;;4952358;28;20203;-87
2024/01/10 06:29:26;;;;;;;8.00;4.17;;;-0.10;85.60;;;;;;4956094;28;20581;-84
2024/01/10 06:31:56;;;;;;;3.20;2.77;;;-0.10;85.50;;;;;;4957229;28;20282;-84
2024/01/10 06:34:25;;;;;;;4.63;3.07;;;-0.10;85.40;;;;;;4954983;28;20203;-86
2024/01/10 06:36:53;;;;;;;6.93;3.50;;;0.00;85.20;;;;;;4956824;28;20265;-84
2024/01/10 06:39:22;;;;;;;4.00;2.80;;;0.00;85.10;;;;;;4947104;28;20202;-84
2024/01/10 06:41:51;;;;;;;5.87;5.03;;;0.10;85.00;;;;;;4955601;28;20211;-84
2024/01/10 06:44:19;;;;;;;3.60;2.10;;;0.10;85.00;;;;;;4948950;28;20200;-83
2024/01/10 06:46:49;;;;;;;2.33;2.13;;;0.20;85.00;;;;;;4958626;28;20207;-85
2024/01/10 06:49:18;;;;;;;6.43;4.03;;;0.20;85.00;;;;;;4957689;28;20202;-84
2024/01/10 06:51:47;;;;;;;2.43;2.27;;;0.20;85.00;;;;;;4957880;28;20230;-84
2024/01/10 06:54:15;;;;;;;2.70;2.47;;;0.20;85.00;;;;;;4966334;28;20673;-84
2024/01/10 06:56:44;;;;;;;5.30;3.30;;;0.30;84.90;;;;;;4955827;28;20289;-84
2024/01/10 06:59:15;;;;;;;3.13;2.88;;;0.40;85.10;;;;;;4959803;28;20449;-84
2024/01/10 07:01:44;;;;;;;6.10;3.50;;;0.40;85.20;;;;;;4949861;28;20218;-83
2024/01/10 07:04:14;;;;;;;2.17;2.07;;;0.50;85.20;;;;;;4951356;28;20218;-84
2024/01/10 07:06:47;;;;;;;4.17;2.03;;;0.50;84.90;;;;;;4955473;28;20589;-83
2024/01/10 07:09:19;;;;;;;3.30;3.03;;;0.60;85.80;;;;;;4956512;28;20214;-84
2024/01/10 07:11:48;;;;;;;4.83;3.50;;;0.50;84.30;;;;;;4954628;28;20727;-82
2024/01/10 07:14:17;;;;;;;2.97;2.73;;;0.60;84.30;;;;;;4955012;28;20208;-82
2024/01/10 07:16:47;;;;;;;5.70;3.00;;;0.70;84.30;;;;;;4958831;28;20281;-83
2024/01/10 07:19:17;;;;;;;6.40;5.57;;;0.70;84.40;;;;;;4949891;28;20215;-82
2024/01/10 07:21:46;;;;;;;6.13;2.60;;;0.80;84.40;;;;;;4951155;28;20222;-82
2024/01/10 07:24:14;;;;;;;3.03;1.87;;;0.80;84.00;;;;;;4955047;28;20210;-84
2024/01/10 07:26:43;;;;;;;3.37;3.07;;;0.90;84.60;;;;;;4956157;28;20208;-85
2024/01/10 07:29:12;;;;;;;2.83;2.63;;;1.00;83.80;;;;;;4957454;28;20575;-84
2024/01/10 07:31:40;;;;;;;3.10;2.80;;;1.00;83.20;;;;;;4961723;28;20279;-85
2024/01/10 07:34:09;;;;;;;2.53;2.33;;;1.10;83.20;;;;;;4955105;28;20211;-86
2024/01/10 07:36:44;;;;;;;2.50;2.30;;;1.10;82.50;;;;;;4959847;28;20220;-84
2024/01/10 07:39:15;;;;;;;2.33;2.13;;;1.10;81.70;;;;;;4964484;28;20202;-85
2024/01/10 07:41:46;;;;;;;4.00;3.70;;;1.10;81.80;;;;;;4955769;28;20273;-84
2024/01/10 07:44:14;;;;;;;2.53;2.33;;;1.20;81.60;;;;;;4943679;28;20216;-87
2024/01/10 07:46:43;;;;;;;5.73;2.90;;;1.30;81.50;;;;;;4955355;28;20209;-84
2024/01/10 07:49:12;;;;;;;9.57;5.73;;;1.30;81.10;;;;;;4954739;28;20212;-84
2024/01/10 07:51:41;;;;;;;4.47;2.23;;;1.40;81.00;;;;;;4959660;28;20210;-84
2024/01/10 07:54:11;;;;;;;1.97;1.80;;;1.40;80.90;;;;;;4956133;28;20651;-84
2024/01/10 07:56:40;;;;;;;4.30;2.97;;;1.40;80.50;;;;;;4952330;28;20201;-84
2024/01/10 07:59:09;;;;;;;12.57;4.60;;;1.50;79.80;;;;;;4952133;28;20554;-83
2024/01/10 08:01:37;;;;;;;8.10;2.87;;;1.60;80.00;;;;;;4950309;28;20219;-83
2024/01/10 08:04:07;;;;;;;2.30;2.20;;;1.60;79.70;;;;;;4953703;28;20213;-83
2024/01/10 08:06:36;;;;;;;4.73;1.90;;;1.70;80.00;;;;;;4951508;28;20205;-83
2024/01/10 08:09:04;;;;;;;5.20;4.03;;;1.70;78.90;;;;;;4954512;28;20687;-85
2024/01/10 08:11:35;;;;;;;3.23;2.43;;;1.80;78.10;;;;;;4956942;28;20319;-85
2024/01/10 08:14:04;;;;;;;2.80;2.60;;;1.70;78.10;;;;;;4947135;28;20651;-84
2024/01/10 08:16:33;;;;;;;3.80;2.03;;;1.80;78.40;;;;;;4953084;28;20276;-87
2024/01/10 08:19:02;;;;;;;2.53;2.33;;;1.90;78.00;;;;;;4950806;28;20238;-85
2024/01/10 08:21:30;;;;;;;1.17;1.13;;;1.90;77.90;;;;;;4954676;28;20239;-87
2024/01/10 08:23:59;;;;;;;3.83;3.53;;;1.90;77.30;;;;;;4954662;28;20240;-86
2024/01/10 08:26:28;;;;;;;6.90;4.50;;;1.90;77.30;;;;;;4957107;28;20210;-87
2024/01/10 08:28:58;;;;;;;1.17;1.13;;;1.90;77.20;;;;;;4949059;28;20204;-82
2024/01/10 08:31:27;;;;;;;4.43;3.83;;;2.00;76.90;;;;;;4953871;28;20662;-84
2024/01/10 08:33:56;;;;;;;2.67;2.43;;;2.00;76.50;;;;;;4958792;28;20266;-84
2024/01/10 08:36:25;;;;;;;2.73;2.47;;;2.00;76.50;;;;;;4955961;28;20217;-84
2024/01/10 08:38:54;;;;;;;2.87;2.67;;;2.10;76.50;;;;;;4945262;28;20233;-81
2024/01/10 08:41:22;;;;;;;1.20;1.17;;;2.20;76.40;;;;;;4949930;28;20228;-80
2024/01/10 08:43:52;;;;;;;0.93;0.93;;;2.30;76.60;;;;;;4951678;28;20758;-80
2024/01/10 08:46:22;;;;;;;2.73;2.50;;;2.30;76.30;;;;;;4955481;28;20202;-79
2024/01/10 08:48:51;;;;;;;4.00;2.73;;;2.40;75.70;;;;;;4950373;28;20230;-80
2024/01/10 08:51:19;;;;;;;3.90;2.50;;;2.40;75.10;;;;;;4955920;28;20204;-79
2024/01/10 08:53:48;;;;;;;4.17;2.07;;;2.40;74.50;;;;;;4949846;28;20936;-82
2024/01/10 08:56:17;;;;;;;2.73;2.50;;;2.50;75.00;;;;;;4952364;28;20221;-82
2024/01/10 08:58:46;;;;;;;6.43;1.50;;;2.50;74.60;;;;;;4959887;28;20229;-82
2024/01/10 09:01:15;;;;;;;3.90;3.33;;;2.60;74.90;;;;;;4948353;28;20230;-82
2024/01/10 09:03:45;;;;;;;6.63;2.10;;;2.60;74.50;;;;;;4950014;28;20325;-81
2024/01/10 09:06:14;;;;;;;5.03;3.83;;;2.70;74.60;;;;;;4948005;28;20237;-83
2024/01/10 09:08:43;;;;;;;4.43;3.30;;;2.70;73.60;;;;;;4945660;28;20295;-83
2024/01/10 09:11:12;;;;;;;3.33;3.13;;;2.80;72.50;;;;;;4948998;28;20212;-85
2024/01/10 09:13:40;;;;;;;5.70;3.50;;;3.00;73.50;;;;;;4948336;28;20195;-85
2024/01/10 09:16:09;;;;;;;1.63;1.53;;;3.00;72.90;;;;;;4951335;28;20202;-82
2024/01/10 09:18:39;;;;;;;2.83;1.37;;;3.10;71.60;;;;;;4950898;28;20284;-83
2024/01/10 09:21:10;;;;;;;1.97;1.83;;;3.10;70.20;;;;;;4953311;28;20620;-83
2024/01/10 09:23:38;;;;;;;1.43;1.33;;;3.10;70.40;;;;;;4953303;28;20635;-82
2024/01/10 09:26:08;;;;;;;3.60;2.43;;;3.20;69.80;;;;;;4953570;28;20241;-85
2024/01/10 09:28:37;;;;;;;1.70;1.60;;;3.20;69.70;;;;;;4946647;28;20564;-84
2024/01/10 09:31:07;;;;;;;2.00;1.83;;;3.30;69.90;;;;;;4949034;28;20677;-85
2024/01/10 09:33:35;;;;;;;2.50;2.30;;;3.40;70.00;;;;;;4947085;28;20249;-84
2024/01/10 09:36:05;;;;;;;1.73;1.63;;;3.50;69.40;;;;;;4951204;28;20246;-84
2024/01/10 09:38:38;;;;;;;1.13;1.10;;;3.60;69.40;;;;;;4958982;28;20230;-84
2024/01/10 09:41:07;;;;;;;1.50;1.33;;;3.60;67.30;;;;;;4955556;28;20214;-85
2024/01/10 09:43:35;;;;;;;2.00;1.53;;;3.70;66.70;;;;;;4962682;28;20189;-83
2024/01/10 09:46:07;;;;;;;0.60;0.60;;;3.80;65.60;;;;;;4956120;28;20202;-82
2024/01/10 09:48:36;;;;;;;2.63;2.20;;;3.80;64.60;;;;;;4954787;28;20207;-82
2024/01/10 09:51:05;;;;;;;0.67;0.67;;;3.90;62.70;;;;;;4958394;28;20208;-87
2024/01/10 09:53:41;;;;;;;1.13;1.03;;;4.10;64.20;;;;;;4962035;28;20210;-87
2024/01/10 09:56:10;;;;;;;1.23;1.17;;;4.20;63.60;;;;;;4959421;28;20291;-86
2024/01/10 09:58:40;;;;;;;1.73;1.63;;;4.30;63.50;;;;;;4956161;28;20305;-85
2024/01/10 10:01:09;;;;;;;1.90;1.57;;;4.30;60.70;;;;;;4953138;28;20200;-84
2024/01/10 10:03:42;;;;;;;4.20;2.23;;;4.40;59.50;;;;;;4955198;28;20515;-83
2024/01/10 10:06:11;;;;;;;1.60;1.40;;;4.50;59.70;;;;;;4956469;28;20202;-85
2024/01/10 10:08:45;;;;;;;1.20;1.00;;;4.50;58.30;;;;;;4953488;28;20291;-84
2024/01/10 10:11:14;;;;;;;3.57;1.43;;;4.60;57.00;;;;;;4951958;28;20219;-84
2024/01/10 10:13:43;;;;;;;1.03;1.03;;;4.60;56.10;;;;;;4958656;28;20313;-86
2024/01/10 10:16:12;;;;;;;1.07;1.07;;;4.70;56.30;;;;;;4948676;28;20213;-86
2024/01/10 10:18:42;;;;;;;2.67;2.23;;;4.70;55.80;;;;;;4956310;28;20206;-86
2024/01/10 10:21:13;;;;;;;8.13;1.60;;;4.80;56.10;;;;;;4952039;28;20211;-85
2024/01/10 10:23:45;;;;;;;0.63;0.63;;;4.70;55.20;;;;;;4957134;28;20233;-83
2024/01/10 10:26:19;;;;;;;2.07;1.47;;;4.70;55.70;;;;;;4953850;28;20219;-84
2024/01/10 10:28:48;;;;;;;3.40;1.57;;;4.70;55.00;;;;;;4958035;28;20198;-82
2024/01/10 10:31:18;;;;;;;0.70;0.70;;;4.80;55.70;;;;;;4958559;28;20753;-83
2024/01/10 10:33:50;;;;;;;0.80;0.80;;;4.80;55.70;;;;;;4950891;28;20679;-81
2024/01/10 10:36:19;;;;;;;0.90;0.90;;;4.90;56.40;;;;;;4958179;28;20291;-83
2024/01/10 10:38:50;;;;;;;1.63;1.53;;;4.90;55.60;;;;;;4952834;28;20198;-83
2024/01/10 10:41:20;;;;;;;1.07;0.70;;;5.00;54.80;;;;;;4950593;28;20669;-83
2024/01/10 10:43:52;;;;;;;0.57;0.57;;;5.00;54.00;;;;;;4954551;28;20232;-87
2024/01/10 10:46:22;;;;;;;0.80;0.80;;;5.00;54.70;;;;;;4955881;28;20255;-86
2024/01/10 10:48:50;;;;;;;1.03;0.77;;;5.10;54.60;;;;;;4951709;28;20684;-90
2024/01/10 10:51:29;;;;;;;0.80;0.80;;;5.10;54.40;;;;;;4956571;28;20227;-89
2024/01/10 10:54:00;;;;;;;1.20;1.10;;;5.20;54.60;;;;;;4958511;29;20205;-88
2024/01/10 10:56:31;;;;;;;8.70;1.83;;;5.20;53.80;;;;;;4961390;28;20201;-86
2024/01/10 10:59:02;;;;;;;1.07;1.07;;;5.20;54.00;;;;;;4959985;29;20245;-89
2024/01/10 11:01:34;;;;;;;5.40;2.57;;;5.20;53.70;;;;;;4956739;28;20880;-88
2024/01/10 11:04:03;;;;;;;0.60;0.60;;;5.20;53.00;;;;;;4954026;28;20213;-87
2024/01/10 11:06:34;;;;;;;1.83;1.50;;;5.20;52.50;;;;;;4955542;28;20220;-85
2024/01/10 11:09:10;;;;;;;0.50;0.50;;;5.20;52.80;;;;;;4950139;28;20213;-86
2024/01/10 11:11:54;;;;;;;2.13;1.23;;;5.20;52.90;;;;;;4959402;28;20215;-89
2024/01/10 11:14:37;;;;;;;2.77;1.80;;;5.30;53.20;;;;;;4954948;28;20205;-87
2024/01/10 11:17:35;;;;;;;1.27;1.17;;;5.30;52.70;;;;;;4955879;28;20740;-87
2024/01/10 11:20:38;;;;;;;1.50;1.40;;;5.20;53.00;;;;;;4951203;28;20209;-87
2024/01/10 11:23:44;;;;;;;1.13;1.03;;;5.30;54.00;;;;;;4959587;28;20319;-84
2024/01/10 11:26:16;;;;;;;1.50;1.20;;;5.20;54.10;;;;;;4973845;28;20850;-87
2024/01/10 11:28:46;;;;;;;0.90;0.90;;;5.20;54.70;;;;;;4975943;28;20199;-90
2024/01/10 11:31:16;;;;;;;2.20;1.17;;;5.20;54.50;;;;;;4979469;28;20236;-85
2024/01/10 11:33:49;;;;;;;9.83;2.50;;;5.20;53.80;;;;;;4972180;28;20412;-85
2024/01/10 11:36:19;;;;;;;3.07;1.60;;;5.20;54.50;;;;;;4973404;28;20295;-86
2024/01/10 11:38:56;;;;;;;1.57;1.43;;;5.20;54.20;;;;;;4975677;28;20260;-86
2024/01/10 11:41:28;;;;;;;1.43;1.33;;;5.20;54.30;;;;;;4985933;28;20724;-87
2024/01/10 11:44:29;;;;;;;1.53;1.40;;;5.20;54.60;;;;;;4975899;28;20222;-90
2024/01/10 11:47:00;;;;;;;5.10;2.53;;;5.20;54.00;;;;;;4980092;28;20310;-92
2024/01/10 11:49:30;;;;;;;1.03;0.83;;;5.20;54.20;;;;;;4975311;28;20204;-90
2024/01/10 11:52:00;;;;;;;1.00;0.97;;;5.20;53.90;;;;;;4978178;28;20267;-89
2024/01/10 11:54:37;;;;;;;1.70;1.53;;;5.20;54.10;;;;;;4977586;28;20215;-89
2024/01/10 11:57:14;;;;;;;1.80;1.43;;;5.20;53.90;;;;;;4972693;28;20559;-90
2024/01/10 11:59:45;;;;;;;0.53;0.53;;;5.20;54.30;;;;;;4971392;28;20228;-90
2024/01/10 12:02:16;;;;;;;0.63;0.63;;;5.20;54.10;;;;;;4974979;28;20216;-88
2024/01/10 12:04:45;;;;;;;1.17;1.17;;;5.30;54.80;;;;;;4974116;28;20224;-88
2024/01/10 12:07:17;;;;;;;0.73;0.73;;;5.40;55.10;;;;;;4973920;28;20486;-88
2024/01/10 12:09:47;;;;;;;1.90;1.77;;;5.50;55.10;;;;;;4974611;28;20723;-88
2024/01/10 12:12:18;;;;;;;0.43;0.43;;;5.40;53.50;;;;;;4972156;28;20213;-86
2024/01/10 12:14:47;;;;;;;1.50;1.33;;;5.50;54.10;;;;;;4973400;28;20204;-85
2024/01/10 12:17:16;;;;;;;0.60;0.60;;;5.40;54.10;;;;;;4976485;28;20219;-85
2024/01/10 12:19:47;;;;;;;1.30;1.00;;;5.50;54.80;;;;;;4977847;28;20212;-85
2024/01/10 12:22:18;;;;;;;1.53;1.43;;;5.50;54.40;;;;;;4973824;28;20209;-86
2024/01/10 12:24:48;;;;;;;1.53;1.43;;;5.50;54.20;;;;;;4974206;28;20204;-84
2024/01/10 12:27:21;;;;;;;0.87;0.87;;;5.50;54.30;;;;;;4979038;28;20197;-86
2024/01/10 12:29:52;;;;;;;0.77;0.77;;;5.50;54.40;;;;;;4978344;28;20208;-85
2024/01/10 12:32:22;;;;;;;1.23;0.80;;;5.50;55.10;;;;;;4973965;28;20205;-86
2024/01/10 12:35:00;;;;;;;0.80;0.80;;;5.50;54.70;;;;;;4970445;28;20205;-85
2024/01/10 12:37:29;;;;;;;1.00;1.00;;;5.50;54.70;;;;;;4976858;28;20272;-83
2024/01/10 12:39:58;;;;;;;2.10;1.90;;;5.50;54.30;;;;;;4973983;28;20208;-86
2024/01/10 12:42:28;;;;;;;1.83;1.73;;;5.50;54.30;;;;;;4964305;28;20484;-84
2024/01/10 12:44:57;;;;;;;1.23;1.23;;;5.40;54.10;;;;;;4973363;28;20212;-86
2024/01/10 12:47:27;;;;;;;3.93;1.37;;;5.40;54.50;;;;;;4981631;28;20303;-85
2024/01/10 12:49:56;;;;;;;4.63;1.00;;;5.40;55.20;;;;;;4975734;28;20204;-84
2024/01/10 12:52:25;;;;;;;0.80;0.80;;;5.50;56.20;;;;;;4968335;28;20198;-86
2024/01/10 12:54:54;;;;;;;7.93;1.13;;;5.50;56.20;;;;;;4972826;28;20324;-85
2024/01/10 12:57:23;;;;;;;1.03;1.03;;;5.60;56.70;;;;;;4974557;28;20198;-87
2024/01/10 12:59:53;;;;;;;0.67;0.67;;;5.70;56.60;;;;;;4974281;28;20224;-87
2024/01/10 13:02:22;;;;;;;1.40;1.17;;;5.80;56.50;;;;;;4974994;28;20205;-85
2024/01/10 13:04:51;;;;;;;2.43;1.43;;;5.90;56.60;;;;;;4968436;28;20245;-84
2024/01/10 13:07:20;;;;;;;1.77;1.67;;;5.80;55.30;;;;;;4972992;28;20229;-88
2024/01/10 13:09:49;;;;;;;1.07;1.07;;;5.90;55.70;;;;;;4970606;28;20233;-86
2024/01/10 13:12:18;;;;;;;0.80;0.80;;;6.10;56.70;;;;;;4973748;28;20209;-86
2024/01/10 13:14:47;;;;;;;1.40;0.83;;;6.30;56.40;;;;;;4977872;28;20200;-86